createdAt,value
2023-04-08T00:02:22.146Z,5.60
2023-04-08T00:04:51.041Z,5.30
2023-04-08T00:07:19.515Z,4.80
2023-04-08T00:09:47.717Z,5.30
2023-04-08T00:12:16.238Z,3.60
2023-04-08T00:14:44.407Z,4.30
2023-04-08T00:17:13.305Z,5.30
2023-04-08T00:19:41.912Z,5.80
2023-04-08T00:22:11.753Z,5.30
2023-04-08T00:24:40.981Z,4.80
2023-04-08T00:27:13.775Z,4.60
2023-04-08T00:29:42.956Z,3.90
2023-04-08T00:32:11.158Z,4.00
2023-04-08T00:34:39.476Z,2.40
2023-04-08T00:37:07.994Z,2.90
2023-04-08T00:39:37.509Z,3.30
2023-04-08T00:42:05.729Z,3.60
2023-04-08T00:44:34.110Z,3.40
2023-04-08T00:47:03.674Z,3.70
2023-04-08T00:49:32.711Z,3.90
2023-04-08T00:52:01.564Z,3.70
2023-04-08T00:54:31.957Z,3.90
2023-04-08T00:57:01.455Z,2.20
2023-04-08T00:59:31.586Z,3.70
2023-04-08T01:02:12.589Z,3.40
2023-04-08T01:04:53.744Z,3.90
2023-04-08T01:07:34.051Z,3.90
2023-04-08T01:10:18.783Z,3.80
2023-04-08T01:12:55.332Z,4.00
2023-04-08T01:15:27.126Z,3.80
2023-04-08T01:17:58.925Z,2.20
2023-04-08T01:20:28.985Z,3.00
2023-04-08T01:23:02.296Z,4.20
2023-04-08T01:25:36.799Z,4.20
2023-04-08T01:28:12.473Z,4.20
2023-04-08T01:30:42.751Z,4.30
2023-04-08T01:33:13.771Z,3.90
2023-04-08T01:35:47.457Z,3.80
2023-04-08T01:38:20.240Z,1.90
2023-04-08T01:40:51.261Z,2.90
2023-04-08T01:43:20.573Z,3.60
2023-04-08T01:45:50.456Z,4.10
2023-04-08T01:48:20.918Z,4.50
2023-04-08T01:50:51.505Z,4.00
2023-04-08T01:53:20.098Z,4.40
2023-04-08T01:55:55.858Z,4.50
2023-04-08T01:58:28.233Z,3.10
2023-04-08T02:00:59.075Z,3.20
2023-04-08T02:03:31.356Z,3.80
2023-04-08T02:06:00.061Z,4.00
2023-04-08T02:08:28.345Z,3.50
2023-04-08T02:10:57.216Z,3.90
2023-04-08T02:13:26.115Z,3.80
2023-04-08T02:16:03.376Z,4.10
2023-04-08T02:18:36.451Z,2.50
2023-04-08T02:21:14.756Z,3.10
2023-04-08T02:23:51.443Z,3.90
2023-04-08T02:26:22.385Z,3.80
2023-04-08T02:28:52.629Z,4.10
2023-04-08T02:31:24.803Z,4.20
2023-04-08T02:33:56.128Z,4.00
2023-04-08T02:36:26.113Z,4.00
2023-04-08T02:38:56.283Z,2.30
2023-04-08T02:41:29.183Z,2.90
2023-04-08T02:43:58.259Z,3.80
2023-04-08T02:46:28.319Z,3.90
2023-04-08T02:48:56.812Z,3.80
2023-04-08T02:51:25.163Z,3.50
2023-04-08T02:53:54.429Z,4.20
2023-04-08T02:56:22.826Z,3.70
2023-04-08T02:58:52.394Z,2.30
2023-04-08T03:01:21.373Z,3.00
2023-04-08T03:03:50.747Z,3.00
2023-04-08T03:06:19.025Z,3.40
2023-04-08T03:08:47.607Z,3.20
2023-04-08T03:11:17.601Z,3.60
2023-04-08T03:13:46.994Z,3.40
2023-04-08T03:16:19.989Z,2.10
2023-04-08T03:18:53.751Z,3.00
2023-04-08T03:23:50.640Z,2.90
2023-04-08T03:26:19.392Z,2.80
2023-04-08T03:28:48.161Z,3.40
2023-04-08T03:31:16.724Z,3.30
2023-04-08T03:33:45.360Z,1.90
2023-04-08T03:36:13.660Z,2.60
2023-04-08T03:38:42.383Z,3.20
2023-04-08T03:41:11.063Z,3.40
2023-04-08T03:43:41.364Z,3.80
2023-04-08T03:46:09.847Z,3.20
2023-04-08T03:48:40.985Z,3.30
2023-04-08T03:51:09.274Z,1.80
2023-04-08T03:53:42.171Z,2.70
2023-04-08T03:56:10.787Z,3.00
2023-04-08T03:58:39.432Z,3.40
2023-04-08T04:01:07.846Z,3.60
2023-04-08T04:03:37.127Z,3.80
2023-04-08T04:06:05.848Z,3.70
2023-04-08T04:08:34.452Z,1.80
2023-04-08T04:11:03.309Z,2.60
2023-04-08T04:13:31.534Z,3.30
2023-04-08T04:16:01.788Z,3.70
2023-04-08T04:18:30.794Z,3.30
2023-04-08T04:20:59.187Z,3.60
2023-04-08T04:23:27.500Z,3.70
2023-04-08T04:25:56.105Z,3.60
2023-04-08T04:28:25.624Z,1.90
2023-04-08T04:30:55.921Z,2.50
2023-04-08T04:33:26.545Z,3.30
2023-04-08T04:35:55.091Z,3.60
2023-04-08T04:38:23.673Z,4.30
2023-04-08T04:40:51.938Z,3.90
2023-04-08T04:43:21.197Z,3.50
2023-04-08T04:48:21.511Z,3.10
2023-04-08T04:50:57.272Z,2.20
2023-04-08T04:53:26.130Z,2.40
2023-04-08T04:55:54.610Z,2.70
2023-04-08T04:58:23.108Z,3.70
2023-04-08T05:00:53.036Z,3.10
2023-04-08T05:03:22.438Z,3.20
2023-04-08T05:05:55.588Z,3.30
2023-04-08T05:08:27.717Z,3.60
2023-04-08T05:13:28.173Z,3.40
2023-04-08T05:15:58.941Z,2.10
2023-04-08T05:18:27.488Z,2.10
2023-04-08T05:20:58.830Z,3.20
2023-04-08T05:23:27.247Z,3.00
2023-04-08T05:25:56.285Z,2.70
2023-04-08T05:28:28.382Z,3.00
2023-04-08T05:30:56.898Z,3.10
2023-04-08T05:33:26.676Z,3.50
2023-04-08T05:35:59.406Z,3.40
2023-04-08T05:38:27.747Z,3.20
2023-04-08T05:40:57.720Z,3.40
2023-04-08T05:43:26.232Z,3.30
2023-04-08T05:45:59.289Z,3.60
2023-04-08T05:48:29.102Z,3.20
2023-04-08T05:50:57.679Z,3.50
2023-04-08T05:53:28.091Z,3.20
2023-04-08T05:55:56.405Z,3.20
2023-04-08T05:58:25.478Z,3.30
2023-04-08T06:00:55.761Z,3.30
2023-04-08T06:03:26.203Z,3.70
2023-04-08T06:05:55.135Z,3.70
2023-04-08T06:08:24.901Z,3.80
2023-04-08T06:10:53.324Z,3.20
2023-04-08T06:13:25.692Z,3.00
2023-04-08T06:15:54.284Z,3.60
2023-04-08T06:18:23.009Z,3.70
2023-04-08T06:20:51.248Z,3.50
2023-04-08T06:23:19.556Z,4.00
2023-04-08T06:25:48.010Z,3.40
2023-04-08T06:28:16.327Z,3.20
2023-04-08T06:30:47.445Z,2.80
2023-04-08T06:33:16.201Z,3.40
2023-04-08T06:35:45.574Z,3.20
2023-04-08T06:38:14.434Z,3.10
2023-04-08T06:40:44.005Z,3.20
2023-04-08T06:43:12.697Z,3.00
2023-04-08T06:45:43.069Z,3.00
2023-04-08T06:48:12.382Z,2.90
2023-04-08T06:50:46.707Z,3.00
2023-04-08T06:53:15.801Z,3.00
2023-04-08T06:55:44.392Z,3.20
2023-04-08T06:58:13.908Z,3.30
2023-04-08T07:00:43.212Z,3.30
2023-04-08T07:03:14.738Z,3.20
2023-04-08T07:05:44.004Z,3.60
2023-04-08T07:08:12.484Z,3.30
2023-04-08T07:10:42.203Z,3.60
2023-04-08T07:13:11.783Z,4.10
2023-04-08T07:15:42.876Z,3.40
2023-04-08T07:20:43.347Z,2.90
2023-04-08T07:23:12.816Z,3.30
2023-04-08T07:25:41.636Z,3.00
2023-04-08T07:28:10.219Z,3.10
2023-04-08T07:30:39.428Z,3.30
2023-04-08T07:33:08.079Z,3.30
2023-04-08T07:35:38.528Z,3.10
2023-04-08T07:38:11.715Z,3.10
2023-04-08T07:40:40.220Z,3.30
2023-04-08T07:43:09.846Z,2.70
2023-04-08T07:45:38.106Z,2.80
2023-04-08T07:48:08.632Z,3.30
2023-04-08T07:51:08.914Z,3.50
2023-04-08T07:53:28.797Z,2.50
2023-04-08T07:55:57.166Z,2.90
2023-04-08T07:58:26.626Z,2.70
2023-04-08T08:00:55.634Z,2.80
2023-04-08T08:03:25.786Z,2.70
2023-04-08T08:05:54.257Z,2.60
2023-04-08T08:08:22.516Z,2.80
2023-04-08T08:10:50.774Z,2.70
2023-04-08T08:13:22.231Z,2.50
2023-04-08T08:18:23.275Z,2.40
2023-04-08T08:20:51.580Z,2.70
2023-04-08T08:23:22.293Z,2.30
2023-04-08T08:25:58.981Z,3.90
2023-04-08T08:28:34.039Z,2.50
2023-04-08T08:31:03.721Z,2.30
2023-04-08T08:33:33.235Z,2.70
2023-04-08T08:36:05.869Z,3.30
2023-04-08T08:38:35.951Z,2.20
2023-04-08T08:41:05.037Z,3.50
2023-04-08T08:43:34.303Z,2.50
2023-04-08T08:46:03.850Z,2.40
2023-04-08T08:48:34.184Z,3.00
2023-04-08T08:51:09.423Z,2.80
2023-04-08T08:53:39.240Z,2.70
2023-04-08T08:58:41.120Z,2.50
2023-04-08T09:01:41.725Z,2.10
2023-04-08T09:04:11.973Z,2.40
2023-04-08T09:06:44.474Z,2.80
2023-04-08T09:09:14.065Z,2.50
2023-04-08T09:11:47.390Z,2.40
2023-04-08T09:14:25.914Z,2.40
2023-04-08T09:16:54.673Z,2.90
2023-04-08T09:19:31.428Z,2.80
2023-04-08T09:22:10.894Z,2.50
2023-04-08T09:24:39.247Z,2.80
2023-04-08T09:27:07.942Z,2.50
2023-04-08T09:29:39.855Z,2.60
2023-04-08T09:32:09.242Z,2.60
2023-04-08T09:34:37.864Z,2.60
2023-04-08T09:37:07.386Z,2.80
2023-04-08T09:39:39.108Z,2.80
2023-04-08T09:42:12.134Z,2.60
2023-04-08T09:44:44.944Z,2.60
2023-04-08T09:47:23.936Z,2.10
2023-04-08T09:49:58.641Z,2.20
2023-04-08T09:52:47.163Z,2.20
2023-04-08T09:55:22.077Z,2.60
2023-04-08T09:57:50.458Z,2.50
2023-04-08T10:00:19.830Z,2.20
2023-04-08T10:02:58.676Z,2.40
2023-04-08T10:05:28.168Z,2.90
2023-04-08T10:07:59.015Z,2.30
2023-04-08T10:10:28.061Z,2.40
2023-04-08T10:12:58.354Z,2.50
2023-04-08T10:15:28.222Z,2.70
2023-04-08T10:18:08.048Z,2.30
2023-04-08T10:20:43.355Z,2.40
2023-04-08T10:23:14.035Z,3.00
2023-04-08T10:25:48.189Z,3.00
2023-04-08T10:28:25.255Z,3.00
2023-04-08T10:30:55.835Z,2.40
2023-04-08T10:33:33.710Z,2.60
2023-04-08T10:36:10.387Z,2.90
2023-04-08T10:38:39.863Z,3.00
2023-04-08T10:41:14.557Z,2.50
2023-04-08T10:43:43.149Z,3.10
2023-04-08T10:46:13.150Z,2.90
2023-04-08T10:48:41.837Z,3.30
2023-04-08T10:51:14.270Z,2.70
2023-04-08T10:53:45.735Z,2.50
2023-04-08T10:56:16.690Z,2.50
2023-04-08T10:58:51.597Z,2.80
2023-04-08T11:01:20.751Z,3.00
2023-04-08T11:03:50.486Z,2.90
2023-04-08T11:06:20.256Z,2.60
2023-04-08T11:08:48.686Z,2.90
2023-04-08T11:11:17.433Z,3.00
2023-04-08T11:13:53.473Z,2.90
2023-04-08T11:16:23.266Z,3.30
2023-04-08T11:18:52.128Z,2.80
2023-04-08T11:21:22.477Z,2.50
2023-04-08T11:23:52.296Z,3.10
2023-04-08T11:26:21.296Z,3.10
2023-04-08T11:28:52.131Z,3.00
2023-04-08T11:31:24.663Z,2.90
2023-04-08T11:33:57.589Z,3.50
2023-04-08T11:36:27.413Z,3.60
2023-04-08T11:38:56.129Z,2.90
2023-04-08T11:41:36.410Z,3.00
2023-04-08T11:44:06.985Z,3.00
2023-04-08T11:46:38.056Z,3.20
2023-04-08T11:49:08.821Z,2.80
2023-04-08T11:54:32.086Z,2.90
2023-04-08T11:57:01.018Z,2.90
2023-04-08T11:59:31.827Z,2.70
2023-04-08T12:02:02.205Z,2.50
2023-04-08T12:04:31.274Z,2.80
2023-04-08T12:07:02.188Z,3.10
2023-04-08T12:09:30.697Z,2.80
2023-04-08T12:11:59.601Z,2.80
2023-04-08T12:14:29.252Z,2.70
2023-04-08T12:16:58.380Z,2.30
2023-04-08T12:19:34.433Z,2.70
2023-04-08T12:24:33.457Z,2.50
2023-04-08T12:27:10.560Z,2.50
2023-04-08T12:29:40.142Z,2.20
2023-04-08T12:32:08.440Z,2.50
2023-04-08T12:34:38.276Z,2.80
2023-04-08T12:37:06.807Z,2.50
2023-04-08T12:39:40.536Z,3.00
2023-04-08T12:42:09.549Z,2.40
2023-04-08T12:44:37.787Z,2.20
2023-04-08T12:47:06.588Z,2.10
2023-04-08T12:49:46.677Z,2.20
2023-04-08T12:52:24.376Z,2.30
2023-04-08T12:54:53.164Z,2.00
2023-04-08T12:57:21.544Z,1.50
2023-04-08T12:59:49.845Z,1.40
2023-04-08T13:02:18.140Z,1.60
2023-04-08T13:04:46.741Z,1.30
2023-04-08T13:07:15.514Z,1.60
2023-04-08T13:09:45.464Z,1.50
2023-04-08T13:12:18.874Z,1.40
2023-04-08T13:14:48.108Z,1.60
2023-04-08T13:17:16.607Z,1.90
2023-04-08T13:19:45.110Z,1.70
2023-04-08T13:22:14.277Z,1.40
2023-04-08T13:24:47.070Z,1.60
2023-04-08T13:27:15.520Z,1.50
2023-04-08T13:29:43.756Z,1.50
2023-04-08T13:32:12.450Z,1.70
2023-04-08T13:34:42.675Z,1.50
2023-04-08T13:37:11.555Z,2.00
2023-04-08T13:39:41.638Z,2.80
2023-04-08T13:42:10.182Z,2.50
2023-04-08T13:44:39.510Z,2.90
2023-04-08T13:47:07.718Z,3.60
2023-04-08T13:49:37.217Z,3.30
2023-04-08T13:52:05.588Z,3.00
2023-04-08T13:54:36.475Z,2.60
2023-04-08T13:57:05.333Z,2.70
2023-04-08T13:59:33.699Z,3.40
2023-04-08T14:02:02.329Z,2.30
2023-04-08T14:04:31.806Z,2.30
2023-04-08T14:07:01.178Z,2.10
2023-04-08T14:09:29.606Z,2.20
2023-04-08T14:11:59.066Z,2.00
2023-04-08T14:14:27.245Z,2.30
2023-04-08T14:16:56.374Z,2.80
2023-04-08T14:19:25.158Z,2.30
2023-04-08T14:21:55.362Z,3.50
2023-04-08T14:24:23.573Z,3.70
2023-04-08T14:26:51.853Z,4.10
2023-04-08T14:29:21.076Z,3.90
2023-04-08T14:31:49.628Z,4.70
2023-04-08T14:34:17.876Z,3.90
2023-04-08T14:36:46.701Z,3.70
2023-04-08T14:39:15.507Z,3.10
2023-04-08T14:41:44.875Z,3.00
2023-04-08T14:44:13.067Z,2.80
2023-04-08T14:46:42.307Z,2.40
2023-04-08T14:49:10.977Z,2.30
2023-04-08T14:51:39.335Z,2.90
2023-04-08T14:54:07.721Z,3.20
2023-04-08T14:56:36.500Z,4.30
2023-04-08T14:59:06.249Z,4.00
2023-04-08T15:01:35.923Z,3.90
2023-04-08T15:04:04.839Z,2.70
2023-04-08T15:06:33.351Z,2.50
2023-04-08T15:09:02.502Z,2.20
2023-04-08T15:11:31.007Z,1.90
2023-04-08T15:13:59.510Z,2.40
2023-04-08T15:16:28.415Z,3.20
2023-04-08T15:18:59.921Z,3.50
2023-04-08T15:21:29.482Z,2.70
2023-04-08T15:23:58.714Z,2.60
2023-04-08T15:26:27.978Z,2.50
2023-04-08T15:28:59.161Z,2.70
2023-04-08T15:31:27.687Z,3.30
2023-04-08T15:33:56.548Z,3.40
2023-04-08T15:36:25.196Z,3.40
2023-04-08T15:38:53.869Z,2.90
2023-04-08T15:41:22.914Z,2.50
2023-04-08T15:43:53.365Z,2.30
2023-04-08T15:46:21.786Z,2.40
2023-04-08T15:48:50.991Z,2.40
2023-04-08T15:51:20.616Z,2.80
2023-04-08T15:53:50.526Z,1.90
2023-04-08T15:56:19.361Z,2.00
2023-04-08T15:58:47.871Z,2.20
2023-04-08T16:01:17.147Z,1.90
2023-04-08T16:03:49.326Z,2.40
2023-04-08T16:06:17.689Z,2.20
2023-04-08T16:08:47.295Z,2.10
2023-04-08T16:11:15.881Z,2.20
2023-04-08T16:13:46.339Z,2.10
2023-04-08T16:16:15.215Z,2.40
2023-04-08T16:18:49.332Z,2.60
2023-04-08T16:21:18.670Z,3.20
2023-04-08T16:23:46.903Z,3.60
2023-04-08T16:26:16.120Z,2.90
2023-04-08T16:28:46.124Z,2.80
2023-04-08T16:31:14.365Z,3.20
2023-04-08T16:33:42.764Z,2.70
2023-04-08T16:36:11.495Z,2.70
2023-04-08T16:38:44.443Z,3.10
2023-04-08T16:41:12.914Z,3.10
2023-04-08T16:43:41.541Z,2.80
2023-04-08T16:46:16.219Z,2.80
2023-04-08T16:48:45.128Z,3.30
2023-04-08T16:51:13.566Z,3.30
2023-04-08T16:53:42.760Z,2.90
2023-04-08T16:56:17.769Z,2.40
2023-04-08T16:58:46.874Z,2.40
2023-04-08T17:01:21.306Z,3.40
2023-04-08T17:03:52.381Z,5.80
2023-04-08T17:06:20.982Z,6.40
2023-04-08T17:08:49.662Z,4.70
2023-04-08T17:11:18.389Z,3.00
2023-04-08T17:13:47.117Z,3.30
2023-04-08T17:16:19.052Z,4.30
2023-04-08T17:18:50.542Z,4.30
2023-04-08T17:21:20.270Z,4.10
2023-04-08T17:23:52.594Z,4.70
2023-04-08T17:26:25.083Z,4.80
2023-04-08T17:28:53.972Z,4.80
2023-04-08T17:31:22.904Z,4.80
2023-04-08T17:33:51.662Z,4.90
2023-04-08T17:36:20.107Z,4.50
2023-04-08T17:38:49.624Z,4.00
2023-04-08T17:41:29.894Z,4.00
2023-04-08T17:44:07.223Z,4.20
2023-04-08T17:46:35.735Z,4.20
2023-04-08T17:49:11.325Z,4.20
2023-04-08T17:51:40.468Z,2.70
2023-04-08T17:54:09.055Z,3.50
2023-04-08T17:56:40.017Z,4.10
2023-04-08T17:59:08.970Z,4.20
2023-04-08T18:01:39.837Z,4.20
2023-04-08T18:04:10.564Z,3.80
2023-04-08T18:06:39.631Z,4.10
2023-04-08T18:09:07.940Z,5.30
2023-04-08T18:11:38.648Z,12.90
2023-04-08T18:14:07.095Z,19.00
2023-04-08T18:16:44.493Z,11.10
2023-04-08T18:19:14.434Z,11.10
2023-04-08T18:21:42.622Z,5.70
2023-04-08T18:24:11.227Z,6.70
2023-04-08T18:26:39.523Z,10.60
2023-04-08T18:29:08.075Z,10.00
2023-04-08T18:31:37.444Z,5.60
2023-04-08T18:34:05.726Z,7.50
2023-04-08T18:36:34.443Z,6.10
2023-04-08T18:39:03.204Z,5.40
2023-04-08T18:41:32.980Z,5.40
2023-04-08T18:44:03.273Z,5.70
2023-04-08T18:46:31.716Z,2.70
2023-04-08T18:49:00.132Z,3.00
2023-04-08T18:51:29.529Z,3.10
2023-04-08T18:53:58.181Z,2.80
2023-04-08T18:56:26.796Z,3.10
2023-04-08T18:58:55.346Z,3.00
2023-04-08T19:01:23.751Z,2.60
2023-04-08T19:03:53.249Z,2.70
2023-04-08T19:06:22.907Z,2.60
2023-04-08T19:08:51.340Z,2.60
2023-04-08T19:11:26.596Z,1.90
2023-04-08T19:13:56.745Z,2.30
2023-04-08T19:16:26.907Z,2.40
2023-04-08T19:18:56.319Z,2.60
2023-04-08T19:21:24.716Z,2.60
2023-04-08T19:23:53.173Z,2.70
2023-04-08T19:26:24.058Z,2.80
2023-04-08T19:28:52.340Z,2.90
2023-04-08T19:31:21.732Z,3.60
2023-04-08T19:33:50.256Z,1.70
2023-04-08T19:36:26.261Z,1.90
2023-04-08T19:38:54.766Z,2.80
2023-04-08T19:41:23.310Z,2.10
2023-04-08T19:43:52.796Z,2.60
2023-04-08T19:46:21.496Z,2.40
2023-04-08T19:48:50.140Z,2.40
2023-04-08T19:51:22.677Z,2.60
2023-04-08T19:53:56.426Z,2.20
2023-04-08T19:56:26.591Z,2.40
2023-04-08T19:58:55.230Z,2.60
2023-04-08T20:01:23.923Z,2.30
2023-04-08T20:03:53.141Z,2.00
2023-04-08T20:06:23.217Z,2.10
2023-04-08T20:08:53.818Z,2.40
2023-04-08T20:11:23.234Z,3.20
2023-04-08T20:13:51.710Z,2.70
2023-04-08T20:16:21.002Z,2.70
2023-04-08T20:18:49.536Z,3.30
2023-04-08T20:21:26.406Z,2.60
2023-04-08T20:23:54.787Z,3.70
2023-04-08T20:26:23.014Z,3.00
2023-04-08T20:28:52.289Z,3.00
2023-04-08T20:31:21.259Z,2.40
2023-04-08T20:33:51.212Z,2.90
2023-04-08T20:36:20.924Z,3.20
2023-04-08T20:38:49.639Z,3.70
2023-04-08T20:41:20.387Z,3.50
2023-04-08T20:43:52.613Z,4.10
2023-04-08T20:46:22.593Z,3.70
2023-04-08T20:48:51.752Z,3.40
2023-04-08T20:51:20.535Z,3.30
2023-04-08T20:53:48.955Z,3.20
2023-04-08T20:56:18.122Z,2.30
2023-04-08T20:58:46.515Z,2.40
2023-04-08T21:01:14.979Z,3.50
2023-04-08T21:03:43.591Z,3.60
2023-04-08T21:06:19.338Z,3.40
2023-04-08T21:08:49.902Z,3.70
2023-04-08T21:11:18.822Z,3.90
2023-04-08T21:13:49.754Z,4.00
2023-04-08T21:16:19.525Z,2.50
2023-04-08T21:18:48.102Z,3.20
2023-04-08T21:21:21.683Z,3.80
2023-04-08T21:23:51.332Z,3.40
2023-04-08T21:26:19.803Z,3.50
2023-04-08T21:28:50.231Z,3.30
2023-04-08T21:31:19.471Z,3.30
2023-04-08T21:33:47.860Z,3.80
2023-04-08T21:36:16.395Z,2.70
2023-04-08T21:38:45.546Z,2.60
2023-04-08T21:41:14.439Z,3.30
2023-04-08T21:43:43.302Z,3.00
2023-04-08T21:46:11.631Z,3.40
2023-04-08T21:48:40.078Z,2.90
2023-04-08T21:51:14.526Z,3.10
2023-04-08T21:53:43.707Z,3.50
2023-04-08T21:56:13.584Z,2.20
2023-04-08T21:58:42.058Z,2.20
2023-04-08T22:01:15.527Z,3.00
2023-04-08T22:03:45.852Z,2.80
2023-04-08T22:06:25.609Z,2.40
2023-04-08T22:09:00.007Z,3.00
2023-04-08T22:11:28.781Z,2.70
2023-04-08T22:13:58.143Z,3.00
2023-04-08T22:16:27.183Z,2.00
2023-04-08T22:18:55.631Z,2.70
2023-04-08T22:21:30.479Z,2.90
2023-04-08T22:23:59.089Z,3.00
2023-04-08T22:26:28.124Z,2.90
2023-04-08T22:29:00.568Z,2.90
2023-04-08T22:31:30.096Z,3.30
2023-04-08T22:33:59.928Z,3.10
2023-04-08T22:36:28.576Z,2.00
2023-04-08T22:38:58.054Z,2.70
2023-04-08T22:41:26.700Z,2.40
2023-04-08T22:43:55.012Z,2.60
2023-04-08T22:46:24.697Z,2.70
2023-04-08T22:48:53.514Z,2.40
2023-04-08T22:51:22.720Z,2.80
2023-04-08T22:53:51.072Z,3.10
2023-04-08T22:56:19.292Z,1.60
2023-04-08T22:58:50.354Z,2.40
2023-04-08T23:01:22.583Z,2.40
2023-04-08T23:03:53.246Z,2.80
2023-04-08T23:06:29.043Z,2.90
2023-04-08T23:08:58.638Z,2.70
2023-04-08T23:11:27.316Z,2.90
2023-04-08T23:13:56.438Z,1.80
2023-04-08T23:16:24.777Z,2.30
2023-04-08T23:18:53.661Z,2.40
2023-04-08T23:21:27.179Z,2.60
2023-04-08T23:23:55.678Z,2.90
2023-04-08T23:26:25.280Z,2.60
2023-04-08T23:31:24.221Z,2.30
2023-04-08T23:33:53.663Z,1.60
2023-04-08T23:36:23.275Z,1.70
2023-04-08T23:38:51.774Z,2.30
2023-04-08T23:41:20.743Z,2.30
2023-04-08T23:43:54.264Z,2.90
2023-04-08T23:46:23.749Z,2.40
2023-04-08T23:48:57.829Z,2.90
2023-04-08T23:51:27.978Z,1.80
2023-04-08T23:53:56.774Z,1.90
2023-04-08T23:56:26.083Z,2.50
2023-04-08T23:58:55.238Z,2.70
